Yanz Family

Subtitle

Blog

TAFOR

Posted by herky04 on July 16, 2013 at 11:50 PM

Apa itu TAFOR ???

TAFOR (Terminal Aerodrome FORecast) adalah prakiraan cuaca suatu aerodrome yang dibuat oleh forecaster On Duty dengan validity standart 24 jam dibuat 4kali sehari ( TAF 0024, 0606, 1212 dan 1818 UTC ) dan dikeluarkan paling lambat 2 jam sebelum validity.

 

Berikut akan saya berikan contoh TAFOR beserta penjelasannya sesuai dengan warna.


Contoh TAFOR

 TAF WIII 102300Z 1100/1206 30008KT 8000 SCT020

BECMG 1108/1110 4000 RA FEW017CB BKN020

TEMPO 1114/1118 2000 TSRA SCT015CB BKN017

BECMG 1123/1201 4000 BR

 

Penjelasan :

 

Prakiraan Cengkareng dibuat pada tgl.10 jam 2300 UTC,

Berlaku untuk periode prakiraan tgl.11 jam 0000 s/d 12 jam 0600 UTC,

Arah angin permukaan rata-rata dari 300 derajat dan kecepatan rata-rata 8 knot,

Jarak penglihatan mendatar rata-rata 8 km,

Jumlah awan 3-4 oktas ketinggian dasar awan 2000 kaki.

 

Tgl. 11 ….. jam 0800UTC s/d 10.00 UTC di prakirakan terjadi proses perubahan,

dimana setelah jam 10.00 UTC sampai jam 14.00 UTC

VIS 4000 m, WX hujan sedang, Jumlah awan cumulonimbus 1-2 oktas,

dengan ketinggian dasar awan 1700 kaki,

serta awan lain yang ber jumlah 5-7 oktas dengan ketinggian dasar awan 2000 kaki.

 

Tgl. 11 ….. jam 1400UTC sampai Tgl. 11 ….. jam 1800 UTC Diprakirakan terjadi perubahan yang temporer fluktuatif a,l

VIS 2000 m, dengan cuaca hujan sedang disertai guntur,

jumlah awan CB 3-4 oktas dengan tinggi dasar awan 1500 kaki,

serta awan lain yang berjumlah 5-7 oktas dengan tinggi dasar awan 1700 kaki.

 

Tgl. 11….. jam 2300 UTC sampai tgl. 12 ….. jam 0100 UTC ,

diperkirakan terjadi proses perubahan kembali dimana setelah tgl. 12 jam 0100 UTC,

VIS 4000 m dengan cuaca halimun (mist)


GLOSSARY


1. Visibility (jarak pandang mendatar). Berikut listnya: 

  • 9999 jarak pandang 10 Km atau lebih
  • 8000 jarak pandang 8 Km
  • 7000 jarak pandang 7 Km
  • dst sampai 1000 jarak pandang 1 Km
  • 0900 jarak pandang 900 m
  • 0800 jarak pandang 800 m
  • dst sampai 0100 jarak pandang 100 m
  • 0090 jarak pandang 90 m
  • 0080 jarak pandang 80 m
  • dst sampai 0010 jarak pandang 10 m

2. Jumlah Awan (cloud) : 
  • NLC berarti No Low Cloud (tidak ada awan rendah)
  • FEW berarti 1/8 - 2/8 langit tertutup awan
  • SCT berarti Scater, yaitu 3/8 - 4/8 langit tertutup awan
  • BKN berarti Broken, yaitu 5/8 - 7/8 langit tertutup awan
  • OVC berarti Overcast, yaitu keseluruhan langit tertutup awan
Keterangan perawanan : 
  • ISOL = Isolated = Awan CB tunggal jarak 50 km
  • OCNL = Occasional = Beberapa Awan CB yang jaraknya cukup jauh (> 50 km)
  • FRQ = Frequensi = Beberapa Awan CB yang jaraknya berdekatan/ hampir tak ada batas antara awan satu dengan awan lainnya.
  • EMBD = Embeded = Awan CB dengan awan lain yang basisnya berbeda

  3. Present Weather : Cuaca yg berlangsung di Aerodrome dan atau sekitarnya dibedakan dlm format menurut jenis fenomenanya, kualifikasi sesuai penunjuk intensitas cuaca dan kedekatan jarak kejadiannya terhadap aerodrome, serta uraian karakteristik cuacanya.

 

  • Endapan (precipitation).

          ** Drizzle (hujan rintik-2)----------DZ

            ** Rain ( hujan )-------------------RA

 

  • Kekaburan ( hydrometeors )

           ** Fog ( kabut) ---------------------FG

      ** Mist ( halimun )-------------------BR

 

  • Kekaburan ( Lithometeor)

           ** Haze ( kabur )-----------------------------HZ

      ** Smoke ( asap ) ----------------------------FU

      ** Volcanic ash ( abu gunung berapi )------ -VA

      ** Dust ( debu ) ------------------------------DU

 

  •  Phenomena-phenomena lain

           ** Squall (angin ribut ) ------------------------ SQ

      ** Funnel cloud ( awan corong/water spout)– FC

 

  •  Kriteria Phenomena cuaca terpenting yang hrs segera dilaporkan untuk penrbangan al :

           ** Thunderstrom ( badai guntur )-------------- TS

      ** Shower ( hujan tiba-tiba ) ------------------ SH

      ** Shallow ( kurang dari 2m diatas permk.tanah)  ----- MI

      ** Patches ( Banda udara tertutup kabut tdk merata) -----BC

      ** Partials ( Aerodrom tertutup kabut,sedang lainnya cerah ) ------ PR


4. Intensitas Kondisi cuaca

  •  Light (Ringan)---------------- FBL atau (-)  tanda minus
  • Moderate (Sedang)--------- MOD
  • Heavy (Lebat)----------------- HVY atau (+) tanda plus
Contoh :
  • MOD TSRA : BADAI GUNTUR INTENSITAS SEDANG DISERTAI HUJAN
  • FBL RATS  : HUJAN INTENSITAS RINGAN DISERTAI BADAI GUNTUR
  • HVY RA  : HUJAN LEBAT FBL TS : BADAI GUNTUR RINGAN

 JIKA FENOMENA CUACA TERJADI TIDAK DALAM RADIUS LEBIH JAUH DARI KIRA-KIRA 8 KM DARI BATAS AERODROME

 JIKA DALAM BERITA SYNOP DILAPORKAN SEBAGAI “PREC IN SIGHT 15” MAKA DILAPORKAN DALAM QAM “VC RA” (VICINITY RAIN)


Berikut kami sajikan beberapa contoh Tafor sebagai bahan latihan Anda. SELAMAT MENCOBA !!!


WAAA 130230Z VRB03KT 9000 FEW019 28/24 Q1008

TAF WAAA 122300Z 1300/1406 12005KT 7000 -RA SCT019 BKN100

BECMG 1301/1303 27010KT 9000 SCT020 SCT100

TEMPO 1306/1309 FEW018CB BECMG 1311/1313 12005KT 8000

BECMG 1401/1403 30010KT 9000


WADD 130230Z 10012KT 9999 SCT015 29/25 Q1008 NOSIG

TAF WADD 122300Z 1300/1324 11012KT 9999 SCT017

BECMG 1304/1306 FEW015CB SCT016 BECMG 1311/1313 SCT017


WARR 130230Z 22004KT 9999 RA SCT015 24/22 Q1008

TAF WARR 122300Z 1300/1324 06008KT 9999 FEW020

PROB40 TEMPO 1304/1309 4000 TSRA FEW018CB SCT018

BECMG 1313/1315 26005KT 7000 SCT020 TEMPO 1315/1318 FEW020CB

BECMG 1319/1321 00000KT 4000 HZ FEW020


WIII 130230Z 22004KT 4000 HZ FEW016CB BKN018 28/24 Q1008

TAF WIII 130500Z 1306/1412 03010KT 9999 SCT020

PROB30 TEMPO 1311/1314 15006KT 5000 -RA BKN019

BECMG 1314/1316 18004KT 7000


WIHH 130200Z 00000KT 5000 HZ 27/24 Q1009 NOSIG

TAF WIHH 122300Z 1300/1324 12005KT 5000 FEW017

BECMG 1301/1303 09006KT 6000 SCT017

TEMPO 1306/1310 18008KT 4000 -TSRA FEW016CB BKN017

BECMG 1306/1310 23008KT 5000 HZ SCT018


WIBB 130200Z 00000KT CAVOK 28/24 Q1006

TAF WIBB 121200Z 1212/1312 00000KT 8000 SCT015

TEMPO 1214/1217 25007KT 5000 -RA FEW014CB BKN014

BECMG 1218/1220 00000KT 7000 SCT014 BECMG 1301/1303 28005KT 9999 SCT015

 

 

Categories: Aviation

Post a Comment

Oops!

Oops, you forgot something.

Oops!

The words you entered did not match the given text. Please try again.

Already a member? Sign In

4 Comments

Reply MichaelMex
4:04 AM on October 11, 2017 
http://levitrafromuzaz.com - cardiovascular specialists p c syracuse
, hello and buy!, hello and buy!
Reply MichaelMex
7:58 AM on October 11, 2017 
http://cialisnewpilles367.com - breast cancer radiation treatment effects
, hello and buy!, hello and buy!
Reply MichaelMex
9:51 PM on October 11, 2017 
http://cialisnewpilles367.com - online pharmacy affiliate forum
, hello and buy!, hello and buy!
Reply MichaelMex
8:57 AM on October 19, 2017 
http://verynicelevitratab.net - order business plan ghostwriting websites for university,pay to write buy argumentative essay on founding fathers,popular phd essay writer services online